Användarinformation hittar du sist på sidan

FJAR - METAR (ingen TAF tillgänglig)
261350Z AUTO VRB01KT 19/12 Q1019=
261420Z AUTO VRB01KT 19/12 Q1019=
261450Z AUTO 00000KT 18/13 Q1019=
261520Z AUTO 00000KT 17/13 Q1019=
FORL - METAR (ingen TAF tillgänglig)
261350Z AUTO 26001KT 17/12 Q1012=
261420Z AUTO 26006KT 16/13 Q1012=
261450Z AUTO 26006KT 16/13 Q1012=
261520Z AUTO 26004KT 15/13 Q1012=
ESGP - METAR (ingen TAF tillgänglig)
261350Z AUTO VRB03KT 9999 NCD 18/10 Q1019=
261420Z AUTO 21004KT 9999 FEW030/// 17/10 Q1019=
261450Z AUTO VRB02KT 7000 HZ NCD 17/11 Q1019=
261520Z AUTO 22004KT 8000 HZ NCD 16/10 Q1019=
ESGG - METAR & TAF
261320Z 13007KT 100V160 CAVOK 16/08 Q1019=
261350Z 14005KT 100V180 CAVOK 16/08 Q1019=
261420Z 14007KT 110V170 CAVOK 16/08 Q1019=
261450Z 13006KT 100V180 CAVOK 16/09 Q1019=
TAF ESGG 261130Z 2612/2712 14006KT 9999 SCT020 PROB40 2704/2708 BKN004=
ESMT - METAR & TAF
261320Z 15006KT 100V200 CAVOK 18/11 Q1019=
261350Z 14005KT 110V170 CAVOK 18/11 Q1019=
261420Z 14004KT 110V170 9999 FEW043 17/11 Q1019=
261450Z 14005KT 120V180 9999 FEW035 SCT043 18/11 Q1019=
TAF ESMT 261415Z 2615/2621 14007KT 9999 SCT030=
Aktuell SWC
Aktuell VFR-analys
VFR-prognos för morgondagen 06 UTC
Endast mellan 16 och 24
VFR-prognos för morgondagen 12 UTC
Endast mellan 16 och 24
Hur uppdaterar man informationen?
Klicka på tidkoden mellan uppdateringssymbolerna i översta svarta fältet.
Tidkoden visar när senaste uppdateringen av sidan gjordes.
Hur anpassar man informationen?
Sidadress utan extraval
met.tulebo.se
ger i skrivande stund några utvalda flygplatser på västkusten med standardinställningar.
Då sidan är i utvecklingsstadiet och det ännu inte finns ett formulär för att välja vilken info man vill se så krävs det just nu lite datorvana för att ändra sitt innehåll. En mer användarvänlig metod står på listan.
Välj egna flygplatser med /?mt= efter met.tulebo.se:
met.tulebo.se/?mt=essa,esgg,esgp,ESMT
Flygplatskoderna skall du skriva in med enbart ett kommatecken emellan.
Små/stora bokstäver funkar vilket som.
De allra flesta skandinaviska samt många av de europeiska flygplatserna verkar fungera.
Max antal metar för varje flygplats kan väljas med ett tal först i listan:
met.tulebo.se/?mt=6,essa,esgg
Detta maxtal gäller för alla flygplatser.
Det går att välja 0 för att skippa metar.
Max antal taf för varje flygplats kan väljas med ytterligare ett tal:
met.tulebo.se/?mt=6,2,essa,esgg
Detta maxtal gäller för alla flygplatser.
Det går att välja 0 för att skippa taf.
Exempel för Kastrup, Sturup & Gardermoen:
met.tulebo.se/?mt=4,2,ekch,esms,engm
Ger fyra senaste metar och två senaste taf.
När du är nöjd med dina val så kan du spara dem som en liten web-app på din lur:
Välj delasymbolen (kvadrat med uppåtpil) samt "Lägg till på hemskärmen/startskärmen".
Även ett vanligt bokmärke innehåller dina anpassningar.
Det går bra att ha flera olika appar/bokmärken sparade.
Icke standard flygplatser
dvs ingen metar/taf på AROWeb
+ ESGP (Säve)
+ FJAR (Fjärås)
+ FORL (Förlanda)
* ESGM (Öresten)
* ESGI (Alingsås)
* ESGV (Varberg)
* ESGE (Borås)
+ implementerad
- ännu ej implementerad
* ingen känd väderstation/källa, tipsa gärna

Ⓧ endast sporadiska väderdata från källa
Datakällor
Standard METAR & TAF
- Meteorologisk institutt, Norge
Icke standard METAR & TAF
- Säve: wx.awos.se
- Fjärås: kulflyg.se
- Förlanda: kulflyg.se
Grafik SWC & VFR-analys/prognos
- Luftfartsverket AROWeb
Att fixa / Planerat
Spara senaste VFR-prognoserna ända tills nya kommer dagen efter
Inställningsformulär
TURF
SIGMET
Kontakt
Daniel Bengtsson - met@tulebo.se